Time;durP1;ratioP1;P1;durP2;ratioP2;P2;SDS_P1;SDS_P2;PMS_P1;PMS_P2;Temp;Humidity;BMP_temperature;BMP_pressure;BME280_temperature;BME280_humidity;BME280_pressure;Samples;Min_cycle;Max_cycle;Signal;HPM_P1;HPM_P2
2021/10/05 00:00:57;;;;;;;;;;;;;;;9.74;86.05;101025.53;2066500;28;20363;-65
2021/10/05 00:01:58;;;;;;;;;;;;;;;9.71;86.50;101030.84;2066589;28;19952;-65
2021/10/05 00:02:58;;;;;;;;;;;;;;;9.70;86.62;101029.16;2067203;28;19913;-63
2021/10/05 00:03:59;;;;;;;;;;;;;;;9.67;86.60;101029.25;2067227;28;19968;-65
2021/10/05 00:04:59;;;;;;;;;;;;;;;9.68;86.05;101030.13;2066502;28;20000;-64
2021/10/05 00:05:59;;;;;;;;;;;;;;;9.65;86.33;101026.69;2066629;28;19917;-65
2021/10/05 00:06:59;;;;;;;;;;;;;;;9.66;86.92;101024.94;2067170;28;19909;-65
2021/10/05 00:07:59;;;;;;;;;;;;;;;9.65;86.51;101033.69;2067208;28;20314;-65
2021/10/05 00:09:01;;;;;;;;;;;;;;;9.63;86.59;101028.53;2067134;28;20354;-64
2021/10/05 00:10:02;;;;;;;;;;;;;;;9.62;86.42;101031.19;2067153;28;20394;-64
2021/10/05 00:11:03;;;;;;;;;;;;;;;9.61;86.81;101021.66;2067005;28;20375;-64
2021/10/05 00:12:03;;;;;;;;;;;;;;;9.57;86.92;101022.66;2066428;28;19945;-65
2021/10/05 00:13:03;;;;;;;;;;;;;;;9.55;87.06;101024.47;2066435;28;19914;-65
2021/10/05 00:14:04;;;;;;;;;;;;;;;9.64;86.44;101029.34;2067086;28;19917;-65
2021/10/05 00:15:05;;;;;;;;;;;;;;;9.73;86.58;101023.84;2067152;28;19955;-65
2021/10/05 00:16:05;;;;;;;;;;;;;;;9.79;85.72;101033.19;2067052;28;19914;-65
2021/10/05 00:17:06;;;;;;;;;;;;;;;9.76;85.96;101023.69;2066998;28;20353;-65
2021/10/05 00:18:06;;;;;;;;;;;;;;;9.73;86.06;101028.19;2067061;28;19909;-65
2021/10/05 00:19:06;;;;;;;;;;;;;;;9.73;86.26;101025.56;2067025;28;19909;-64
2021/10/05 00:20:08;;;;;;;;;;;;;;;9.72;86.32;101031.69;2066972;28;19917;-64
2021/10/05 00:21:09;;;;;;;;;;;;;;;9.68;86.19;101035.31;2067077;28;20359;-66
2021/10/05 00:22:09;;;;;;;;;;;;;;;9.68;86.35;101030.94;2066972;28;19953;-64
2021/10/05 00:23:09;;;;;;;;;;;;;;;9.74;85.98;101027.25;2067110;28;20312;-65
2021/10/05 00:24:11;;;;;;;;;;;;;;;9.78;85.91;101032.31;2066930;28;19910;-64
2021/10/05 00:25:12;;;;;;;;;;;;;;;9.78;86.04;101029.72;2067033;28;19953;-66
2021/10/05 00:26:12;;;;;;;;;;;;;;;9.77;85.88;101025.41;2066336;28;19910;-64
2021/10/05 00:27:12;;;;;;;;;;;;;;;9.81;85.32;101025.31;2066471;28;19952;-65
2021/10/05 00:28:12;;;;;;;;;;;;;;;9.83;85.29;101023.47;2066311;28;19964;-65
2021/10/05 00:29:13;;;;;;;;;;;;;;;9.83;85.44;101020.88;2066810;28;19917;-65
2021/10/05 00:30:13;;;;;;;;;;;;;;;9.84;85.57;101022.56;2067057;28;19909;-66
2021/10/05 00:31:13;;;;;;;;;;;;;;;9.85;85.69;101016.47;2066295;28;20394;-66
2021/10/05 00:32:14;;;;;;;;;;;;;;;9.83;85.31;101011.31;2066412;28;19961;-65
2021/10/05 00:33:14;;;;;;;;;;;;;;;9.87;85.57;101009.44;2066919;28;19910;-66
2021/10/05 00:34:14;;;;;;;;;;;;;;;9.90;85.27;101014.53;2066233;28;19909;-66
2021/10/05 00:35:14;;;;;;;;;;;;;;;9.87;85.09;101006.81;2066477;28;19952;-66
2021/10/05 00:36:14;;;;;;;;;;;;;;;9.88;84.97;101004.16;2066872;28;19956;-66
2021/10/05 00:37:14;;;;;;;;;;;;;;;9.87;85.16;101002.47;2067056;28;20252;-65
2021/10/05 00:38:15;;;;;;;;;;;;;;;9.82;84.94;101003.56;2066230;28;19914;-67
2021/10/05 00:39:15;;;;;;;;;;;;;;;9.78;85.15;100995.84;2066481;28;19909;-66
2021/10/05 00:40:15;;;;;;;;;;;;;;;9.74;85.48;100996.84;2066858;28;20351;-67
2021/10/05 00:41:15;;;;;;;;;;;;;;;9.72;85.45;100996.03;2066923;28;19916;-66
2021/10/05 00:42:15;;;;;;;;;;;;;;;9.73;85.82;100996.91;2066899;28;19913;-67
2021/10/05 00:43:16;;;;;;;;;;;;;;;9.70;85.76;100991.81;2066992;28;19917;-66
2021/10/05 00:44:26;;;;;;;;;;;;;;;9.67;86.19;100990.16;2066872;28;19913;-66
2021/10/05 00:45:26;;;;;;;;;;;;;;;9.68;85.95;100989.25;2066868;28;19956;-65
2021/10/05 00:46:27;;;;;;;;;;;;;;;9.71;85.76;100977.88;2066857;28;19913;-65
2021/10/05 00:47:27;;;;;;;;;;;;;;;9.71;85.96;100985.72;2066277;28;19957;-66
2021/10/05 00:48:28;;;;;;;;;;;;;;;9.69;86.07;100990.97;2058147;28;19914;-66
2021/10/05 00:49:28;;;;;;;;;;;;;;;9.65;85.86;100987.59;2066164;28;19916;-65
2021/10/05 00:50:28;;;;;;;;;;;;;;;9.65;86.35;100986.78;2066875;28;19945;-66
2021/10/05 00:51:28;;;;;;;;;;;;;;;9.63;86.38;100981.63;2066787;28;19913;-66
2021/10/05 00:52:29;;;;;;;;;;;;;;;9.60;86.49;100986.06;2067006;28;19916;-66
2021/10/05 00:53:29;;;;;;;;;;;;;;;9.64;86.69;100979.84;2066803;28;19917;-66
2021/10/05 00:54:31;;;;;;;;;;;;;;;9.63;86.12;100971.19;2066793;28;19941;-65
2021/10/05 00:55:31;;;;;;;;;;;;;;;9.67;85.93;100974.53;2066832;28;19909;-65
2021/10/05 00:56:31;;;;;;;;;;;;;;;9.70;86.18;100971.81;2066704;28;19921;-65
2021/10/05 00:57:31;;;;;;;;;;;;;;;9.72;85.54;100975.19;2066545;28;19932;-66
2021/10/05 00:58:31;;;;;;;;;;;;;;;9.72;85.67;100970.00;2066089;28;19952;-66
2021/10/05 00:59:33;;;;;;;;;;;;;;;9.71;85.47;100970.91;2066125;28;19914;-65
2021/10/05 01:00:33;;;;;;;;;;;;;;;9.70;85.69;100961.38;2066808;28;19920;-67
2021/10/05 01:01:34;;;;;;;;;;;;;;;9.73;85.58;100969.09;2066735;28;19910;-65
2021/10/05 01:02:34;;;;;;;;;;;;;;;9.73;85.95;100971.72;2066722;28;19910;-66
2021/10/05 01:03:34;;;;;;;;;;;;;;;9.71;85.98;100962.25;2066797;28;20287;-66
2021/10/05 01:04:34;;;;;;;;;;;;;;;9.69;85.62;100962.31;2066847;28;19909;-66
2021/10/05 01:05:35;;;;;;;;;;;;;;;9.68;85.72;100957.97;2066017;28;19961;-66
2021/10/05 01:06:35;;;;;;;;;;;;;;;9.74;85.62;100962.13;2066140;28;19913;-65
2021/10/05 01:07:36;;;;;;;;;;;;;;;9.71;85.57;100957.88;2066668;28;19956;-68
2021/10/05 01:08:36;;;;;;;;;;;;;;;9.68;85.82;100960.59;2066750;28;19922;-67
2021/10/05 01:09:36;;;;;;;;;;;;;;;9.73;85.49;100950.00;2066543;28;20347;-65
2021/10/05 01:10:36;;;;;;;;;;;;;;;9.74;85.76;100954.28;2066585;28;19914;-65
2021/10/05 01:11:36;;;;;;;;;;;;;;;9.73;85.63;100940.44;2065979;28;20287;-66
2021/10/05 01:12:36;;;;;;;;;;;;;;;9.74;85.56;100955.16;2066105;28;20435;-67
2021/10/05 01:13:38;;;;;;;;;;;;;;;9.78;85.23;100943.72;2066542;28;20008;-66
2021/10/05 01:14:38;;;;;;;;;;;;;;;9.81;85.41;100942.75;2066593;28;19910;-65
2021/10/05 01:15:38;;;;;;;;;;;;;;;9.79;85.34;100945.41;2066603;28;19910;-66
2021/10/05 01:16:39;;;;;;;;;;;;;;;9.77;85.75;100939.41;2066488;28;19956;-66
2021/10/05 01:17:39;;;;;;;;;;;;;;;9.73;85.73;100943.03;2065935;28;19948;-66
2021/10/05 01:18:39;;;;;;;;;;;;;;;9.76;85.67;100939.47;2066000;28;19931;-65
2021/10/05 01:19:40;;;;;;;;;;;;;;;9.84;85.27;100936.56;2065900;28;20250;-65
2021/10/05 01:20:50;;;;;;;;;;;;;;;9.86;84.63;100934.75;2066055;28;19920;-65
2021/10/05 01:21:50;;;;;;;;;;;;;;;9.82;84.95;100934.00;2065900;28;20043;-69
2021/10/05 01:22:50;;;;;;;;;;;;;;;9.86;84.80;100935.59;2066019;28;19968;-66
2021/10/05 01:23:50;;;;;;;;;;;;;;;9.87;84.85;100934.69;2066632;28;19913;-65
2021/10/05 01:24:51;;;;;;;;;;;;;;;9.83;85.30;100930.50;2066622;28;19910;-65
2021/10/05 01:25:52;;;;;;;;;;;;;;;9.81;85.16;100931.47;2066505;28;19910;-66
2021/10/05 01:26:56;;;;;;;;;;;;;;;9.79;85.16;100916.72;2065956;28;19920;-65
2021/10/05 01:27:56;;;;;;;;;;;;;;;9.83;85.22;100919.22;2065894;28;19910;-64
2021/10/05 01:28:56;;;;;;;;;;;;;;;9.82;85.24;100917.53;2065987;28;19909;-66
2021/10/05 01:29:56;;;;;;;;;;;;;;;9.85;85.14;100915.66;2066551;28;19917;-67
2021/10/05 01:30:57;;;;;;;;;;;;;;;9.84;85.15;100915.69;2066482;28;19910;-67
2021/10/05 01:31:58;;;;;;;;;;;;;;;9.85;85.01;100912.22;2066550;28;20025;-67
2021/10/05 01:32:59;;;;;;;;;;;;;;;9.89;84.93;100919.00;2065868;28;19917;-66
2021/10/05 01:33:59;;;;;;;;;;;;;;;9.87;84.57;100899.94;2065820;28;20405;-66
2021/10/05 01:34:59;;;;;;;;;;;;;;;9.83;84.83;100908.81;2066465;28;19914;-66
2021/10/05 01:35:59;;;;;;;;;;;;;;;9.79;85.27;100908.91;2065687;28;19995;-66
2021/10/05 01:37:00;;;;;;;;;;;;;;;9.83;85.08;100908.81;2065947;28;20367;-66
2021/10/05 01:38:00;;;;;;;;;;;;;;;9.84;84.89;100900.94;2069058;28;19921;-68
2021/10/05 01:39:01;;;;;;;;;;;;;;;9.87;84.89;100910.38;2066443;28;19920;-65
2021/10/05 01:40:03;;;;;;;;;;;;;;;9.85;84.80;100914.81;2066345;28;19917;-66
2021/10/05 01:41:03;;;;;;;;;;;;;;;9.83;85.39;100908.81;2066440;28;19952;-66
2021/10/05 01:42:05;;;;;;;;;;;;;;;9.82;85.12;100907.13;2065752;28;19913;-66
2021/10/05 01:43:05;;;;;;;;;;;;;;;9.79;85.38;100903.69;2065764;28;19913;-66
2021/10/05 01:44:06;;;;;;;;;;;;;;;9.77;85.33;100908.13;2065823;28;19910;-67
2021/10/05 01:45:07;;;;;;;;;;;;;;;9.81;85.16;100901.03;2066424;28;20294;-64
2021/10/05 01:46:12;;;;;;;;;;;;;;;9.85;85.19;100896.56;2066319;28;19922;-66
2021/10/05 01:47:13;;;;;;;;;;;;;;;9.84;85.07;100897.47;2066408;28;19914;-66
2021/10/05 01:48:13;;;;;;;;;;;;;;;9.86;85.32;100898.25;2066364;28;20383;-66
2021/10/05 01:49:14;;;;;;;;;;;;;;;9.87;84.83;100895.59;2066348;28;19941;-67
2021/10/05 01:50:14;;;;;;;;;;;;;;;9.87;85.21;100894.75;2065715;28;19973;-66
2021/10/05 01:51:14;;;;;;;;;;;;;;;9.82;85.06;100901.91;2065718;28;19909;-66
2021/10/05 01:52:15;;;;;;;;;;;;;;;9.82;85.51;100907.94;2065614;28;19916;-67
2021/10/05 01:53:15;;;;;;;;;;;;;;;9.82;85.14;100896.69;2065787;28;20377;-67
2021/10/05 01:54:16;;;;;;;;;;;;;;;9.79;85.60;100892.44;2066342;28;19917;-67
2021/10/05 01:55:16;;;;;;;;;;;;;;;9.81;85.60;100892.38;2066313;28;20278;-67
2021/10/05 01:56:16;;;;;;;;;;;;;;;9.79;85.48;100892.44;2066250;28;19967;-67
2021/10/05 01:57:17;;;;;;;;;;;;;;;9.81;85.82;100890.59;2066333;28;19917;-65
2021/10/05 01:58:17;;;;;;;;;;;;;;;9.82;85.55;100888.88;2066280;28;20327;-67
2021/10/05 01:59:17;;;;;;;;;;;;;;;9.87;85.37;100884.31;2066301;28;20372;-65
2021/10/05 02:00:17;;;;;;;;;;;;;;;9.88;85.34;100881.66;2066170;28;19918;-67
2021/10/05 02:01:17;;;;;;;;;;;;;;;9.89;85.39;100882.50;2066205;28;19910;-67
2021/10/05 02:02:18;;;;;;;;;;;;;;;9.88;85.13;100875.56;2066318;28;19996;-66
2021/10/05 02:03:19;;;;;;;;;;;;;;;9.85;85.52;100881.75;2066249;28;19956;-67
2021/10/05 02:04:19;;;;;;;;;;;;;;;9.85;85.26;100870.50;2066246;28;19910;-66
2021/10/05 02:05:20;;;;;;;;;;;;;;;9.87;85.43;100871.28;2066260;28;19920;-67
2021/10/05 02:06:20;;;;;;;;;;;;;;;9.87;84.85;100868.69;2065574;28;19945;-67
2021/10/05 02:07:20;;;;;;;;;;;;;;;9.83;85.43;100867.97;2065662;28;20393;-66
2021/10/05 02:08:20;;;;;;;;;;;;;;;9.88;85.51;100865.16;2066240;28;19961;-66
2021/10/05 02:09:20;;;;;;;;;;;;;;;9.86;85.49;100861.78;2066251;28;19910;-66
2021/10/05 02:10:21;;;;;;;;;;;;;;;9.85;85.59;100860.09;2066242;28;19960;-66
2021/10/05 02:11:21;;;;;;;;;;;;;;;9.84;85.82;100867.03;2066181;28;19917;-65
2021/10/05 02:12:21;;;;;;;;;;;;;;;9.89;85.27;100862.50;2066218;28;19909;-65
2021/10/05 02:13:22;;;;;;;;;;;;;;;9.91;85.19;100855.47;2066229;28;20294;-66
2021/10/05 02:14:22;;;;;;;;;;;;;;;9.90;85.49;100859.00;2065506;28;19984;-66
2021/10/05 02:15:22;;;;;;;;;;;;;;;9.89;85.58;100856.44;2065661;28;20290;-66
2021/10/05 02:16:22;;;;;;;;;;;;;;;9.92;85.66;100851.09;2066149;28;19917;-65
2021/10/05 02:17:23;;;;;;;;;;;;;;;9.91;85.64;100849.41;2066171;28;20366;-68
2021/10/05 02:18:23;;;;;;;;;;;;;;;9.90;85.23;100842.50;2066146;28;20285;-65
2021/10/05 02:19:23;;;;;;;;;;;;;;;9.98;85.28;100839.56;2065192;28;20000;-66
2021/10/05 02:20:24;;;;;;;;;;;;;;;9.98;85.39;100843.03;2065507;28;20363;-66
2021/10/05 02:21:24;;;;;;;;;;;;;;;9.99;84.93;100831.69;2066202;28;20008;-67
2021/10/05 02:22:24;;;;;;;;;;;;;;;10.06;84.73;100842.72;2066121;28;20274;-67
2021/10/05 02:23:36;;;;;;;;;;;;;;;10.08;84.75;100840.03;2066162;28;19933;-67
2021/10/05 02:24:46;;;;;;;;;;;;;;;10.04;84.42;100826.28;2065445;28;19909;-66
2021/10/05 02:25:46;;;;;;;;;;;;;;;10.00;85.01;100836.00;2065683;28;19964;-65
2021/10/05 02:26:50;;;;;;;;;;;;;;;9.97;85.11;100828.31;2065990;28;19969;-65
2021/10/05 02:27:51;;;;;;;;;;;;;;;9.95;84.94;100835.31;2066165;28;19909;-65
2021/10/05 02:28:51;;;;;;;;;;;;;;;9.98;85.39;100835.22;2066093;28;20330;-65
2021/10/05 02:29:51;;;;;;;;;;;;;;;9.97;85.40;100828.31;2066130;28;19909;-67
2021/10/05 02:30:51;;;;;;;;;;;;;;;9.98;85.26;100824.78;2066092;28;19964;-65
2021/10/05 02:31:52;;;;;;;;;;;;;;;10.00;85.03;100824.72;2066087;28;19910;-65
2021/10/05 02:32:52;;;;;;;;;;;;;;;10.01;85.27;100827.28;2066075;28;19913;-66
2021/10/05 02:33:52;;;;;;;;;;;;;;;10.05;85.23;100820.16;2066043;28;19924;-68
2021/10/05 02:34:52;;;;;;;;;;;;;;;10.05;84.84;100825.38;2066030;28;20011;-65
2021/10/05 02:35:52;;;;;;;;;;;;;;;10.04;85.31;100824.56;2066071;28;19917;-64
2021/10/05 02:36:53;;;;;;;;;;;;;;;10.05;85.30;100822.78;2065965;28;19921;-65
2021/10/05 02:37:53;;;;;;;;;;;;;;;10.01;85.59;100822.06;2066044;28;20379;-65
2021/10/05 02:38:53;;;;;;;;;;;;;;;10.01;84.77;100814.25;2066016;28;19961;-65
2021/10/05 02:39:53;;;;;;;;;;;;;;;10.03;85.14;100812.41;2066012;28;19909;-66
2021/10/05 02:40:53;;;;;;;;;;;;;;;10.03;84.73;100812.41;2066003;28;20008;-66
2021/10/05 02:41:54;;;;;;;;;;;;;;;10.03;85.37;100811.56;2066037;28;19916;-66
2021/10/05 02:42:54;;;;;;;;;;;;;;;10.04;84.96;100808.91;2066039;28;19910;-66
2021/10/05 02:43:54;;;;;;;;;;;;;;;10.04;85.15;100806.31;2066010;28;19929;-66
2021/10/05 02:44:54;;;;;;;;;;;;;;;10.04;85.04;100808.91;2065296;28;19914;-66
2021/10/05 02:45:55;;;;;;;;;;;;;;;10.08;84.59;100798.31;2065474;28;19945;-67
2021/10/05 02:46:55;;;;;;;;;;;;;;;10.13;84.53;100810.25;2065985;28;19932;-66
2021/10/05 02:47:55;;;;;;;;;;;;;;;10.16;84.87;100804.06;2065852;28;20342;-66
2021/10/05 02:48:55;;;;;;;;;;;;;;;10.20;84.28;100803.06;2065997;28;20302;-65
2021/10/05 02:49:55;;;;;;;;;;;;;;;10.20;84.18;100797.84;2065972;28;20389;-66
2021/10/05 02:50:56;;;;;;;;;;;;;;;10.21;84.49;100799.53;2065877;28;19917;-66
2021/10/05 02:51:56;;;;;;;;;;;;;;;10.22;84.45;100795.16;2065585;28;20015;-66
2021/10/05 02:52:56;;;;;;;;;;;;;;;10.20;84.19;100794.38;2066017;28;19910;-68
2021/10/05 02:53:56;;;;;;;;;;;;;;;10.18;84.59;100789.22;2065944;28;19948;-67
2021/10/05 02:54:57;;;;;;;;;;;;;;;10.21;84.61;100791.72;2066027;28;19913;-65
2021/10/05 02:55:57;;;;;;;;;;;;;;;10.17;84.14;100788.38;2065935;28;19909;-67
2021/10/05 02:56:57;;;;;;;;;;;;;;;10.23;83.70;100782.03;2065254;28;19957;-65
2021/10/05 02:57:57;;;;;;;;;;;;;;;10.27;83.90;100791.44;2065347;28;19910;-65
2021/10/05 02:58:57;;;;;;;;;;;;;;;10.28;84.14;100777.50;2065906;28;20375;-65
2021/10/05 02:59:57;;;;;;;;;;;;;;;10.31;83.89;100779.13;2065854;28;19949;-66
2021/10/05 03:00:58;;;;;;;;;;;;;;;10.29;83.80;100781.81;2065904;28;19909;-65
2021/10/05 03:01:58;;;;;;;;;;;;;;;10.25;84.03;100780.22;2065985;28;19918;-65
2021/10/05 03:02:59;;;;;;;;;;;;;;;10.24;83.85;100773.31;2065811;28;19910;-66
2021/10/05 03:03:59;;;;;;;;;;;;;;;10.27;83.74;100775.78;2065977;28;19909;-65
2021/10/05 03:04:59;;;;;;;;;;;;;;;10.28;84.40;100771.44;2065097;28;19909;-66
2021/10/05 03:05:59;;;;;;;;;;;;;;;10.26;84.28;100774.09;2065204;28;19916;-65
2021/10/05 03:06:59;;;;;;;;;;;;;;;10.22;84.20;100766.47;2065797;28;19910;-66
2021/10/05 03:08:00;;;;;;;;;;;;;;;10.31;83.68;100766.91;2065908;28;20398;-65
2021/10/05 03:09:00;;;;;;;;;;;;;;;10.34;83.97;100767.72;2065264;28;19960;-66
2021/10/05 03:10:00;;;;;;;;;;;;;;;10.29;84.18;100766.16;2065334;28;19916;-67
2021/10/05 03:11:00;;;;;;;;;;;;;;;10.30;83.80;100762.63;2065272;28;19909;-66
2021/10/05 03:12:01;;;;;;;;;;;;;;;10.34;83.49;100763.34;2065368;28;19957;-67
2021/10/05 03:13:02;;;;;;;;;;;;;;;10.30;84.06;100764.41;2065971;28;19910;-66
2021/10/05 03:14:02;;;;;;;;;;;;;;;10.31;83.69;100760.88;2068601;28;19913;-65
2021/10/05 03:15:02;;;;;;;;;;;;;;;10.31;84.22;100753.88;2065880;28;20329;-66
2021/10/05 03:16:03;;;;;;;;;;;;;;;10.31;84.04;100756.47;2065109;28;20295;-65
2021/10/05 03:17:03;;;;;;;;;;;;;;;10.28;84.17;100754.03;2065290;28;19913;-65
2021/10/05 03:18:04;;;;;;;;;;;;;;;10.29;83.81;100747.88;2065265;28;19909;-65
2021/10/05 03:19:04;;;;;;;;;;;;;;;10.29;83.57;100753.09;2065363;28;19910;-66
2021/10/05 03:20:04;;;;;;;;;;;;;;;10.25;83.50;100748.94;2065975;28;19910;-65
2021/10/05 03:21:04;;;;;;;;;;;;;;;10.25;84.01;100740.25;2065905;28;19909;-66
2021/10/05 03:22:05;;;;;;;;;;;;;;;10.26;83.75;100745.41;2065220;28;19961;-63
2021/10/05 03:23:05;;;;;;;;;;;;;;;10.33;83.65;100737.34;2057268;28;19924;-66
2021/10/05 03:24:05;;;;;;;;;;;;;;;10.40;83.32;100736.97;2065241;28;20003;-64
2021/10/05 03:25:06;;;;;;;;;;;;;;;10.38;83.71;100738.81;2068562;28;19909;-64
2021/10/05 03:26:06;;;;;;;;;;;;;;;10.37;83.60;100736.28;2065134;28;19909;-65
2021/10/05 03:27:06;;;;;;;;;;;;;;;10.37;83.51;100737.09;2065193;28;20375;-66
2021/10/05 03:28:06;;;;;;;;;;;;;;;10.42;83.17;100729.09;2065187;28;20335;-66
2021/10/05 03:29:10;;;;;;;;;;;;;;;10.47;82.50;100734.97;2065912;28;19920;-66
2021/10/05 03:30:11;;;;;;;;;;;;;;;10.46;82.62;100730.69;2065885;28;19945;-65
2021/10/05 03:31:12;;;;;;;;;;;;;;;10.42;82.92;100736.91;2065219;28;19975;-66
2021/10/05 03:32:12;;;;;;;;;;;;;;;10.39;83.24;100724.00;2065367;28;19913;-66
2021/10/05 03:33:12;;;;;;;;;;;;;;;10.39;82.78;100734.44;2065910;28;19917;-67
2021/10/05 03:34:13;;;;;;;;;;;;;;;10.39;83.16;100729.22;2065823;28;19976;-65
2021/10/05 03:35:13;;;;;;;;;;;;;;;10.34;83.23;100728.59;2065696;28;19971;-67
2021/10/05 03:36:14;;;;;;;;;;;;;;;10.33;83.78;100734.72;2065759;28;19909;-66
2021/10/05 03:37:14;;;;;;;;;;;;;;;10.30;83.54;100731.31;2065909;28;20334;-66
2021/10/05 03:38:15;;;;;;;;;;;;;;;10.30;83.78;100720.88;2065795;28;20011;-65
2021/10/05 03:39:15;;;;;;;;;;;;;;;10.28;83.81;100727.94;2065808;28;19917;-66
2021/10/05 03:40:15;;;;;;;;;;;;;;;10.28;83.98;100721.88;2065696;28;19910;-66
2021/10/05 03:41:15;;;;;;;;;;;;;;;10.33;83.90;100719.06;2065882;28;19910;-65
2021/10/05 03:42:16;;;;;;;;;;;;;;;10.35;83.49;100722.44;2065847;28;20005;-67
2021/10/05 03:43:16;;;;;;;;;;;;;;;10.35;83.12;100715.47;2065835;28;19909;-66
2021/10/05 03:44:16;;;;;;;;;;;;;;;10.31;83.91;100714.75;2065834;28;20317;-64
2021/10/05 03:45:16;;;;;;;;;;;;;;;10.28;83.87;100716.66;2065021;28;19909;-66
2021/10/05 03:46:16;;;;;;;;;;;;;;;10.29;84.03;100711.38;2065166;28;19920;-65
2021/10/05 03:47:17;;;;;;;;;;;;;;;10.28;84.12;100706.22;2065080;28;19956;-66
2021/10/05 03:48:17;;;;;;;;;;;;;;;10.33;83.94;100708.63;2065228;28;19913;-65
2021/10/05 03:49:18;;;;;;;;;;;;;;;10.37;83.42;100710.19;2068499;28;19913;-65
2021/10/05 03:50:18;;;;;;;;;;;;;;;10.31;83.09;100709.53;2065945;28;19916;-65
2021/10/05 03:51:18;;;;;;;;;;;;;;;10.24;83.61;100704.66;2065848;28;20371;-64
2021/10/05 03:52:19;;;;;;;;;;;;;;;10.21;84.22;100704.78;2065142;28;20351;-66
2021/10/05 03:53:20;;;;;;;;;;;;;;;10.24;84.24;100700.31;2065216;28;20346;-64
2021/10/05 03:54:20;;;;;;;;;;;;;;;10.21;84.46;100704.78;2065787;28;19910;-65
2021/10/05 03:55:20;;;;;;;;;;;;;;;10.14;84.08;100709.44;2065756;28;19909;-65
2021/10/05 03:56:20;;;;;;;;;;;;;;;10.07;84.79;100697.56;2065192;28;20367;-65
2021/10/05 03:57:20;;;;;;;;;;;;;;;10.10;85.23;100697.44;2065195;28;19910;-66
2021/10/05 03:58:21;;;;;;;;;;;;;;;10.14;84.89;100694.63;2065782;28;19916;-67
2021/10/05 03:59:21;;;;;;;;;;;;;;;10.16;84.49;100689.31;2065663;28;19913;-66
2021/10/05 04:00:22;;;;;;;;;;;;;;;10.13;84.15;100692.09;2065762;28;20371;-65
2021/10/05 04:01:22;;;;;;;;;;;;;;;10.12;84.82;100692.97;2065716;28;19917;-65
2021/10/05 04:02:22;;;;;;;;;;;;;;;10.15;84.51;100692.84;2065734;28;19944;-65
2021/10/05 04:03:23;;;;;;;;;;;;;;;10.12;84.23;100688.63;2065675;28;20282;-67
2021/10/05 04:04:24;;;;;;;;;;;;;;;10.08;84.95;100683.59;2067007;28;19909;-65
2021/10/05 04:05:24;;;;;;;;;;;;;;;10.15;84.43;100679.81;2066422;28;19915;-67
2021/10/05 04:06:24;;;;;;;;;;;;;;;10.12;84.48;100678.19;2066715;28;19909;-64
2021/10/05 04:07:24;;;;;;;;;;;;;;;10.11;84.60;100679.13;2067134;28;19972;-66
2021/10/05 04:08:24;;;;;;;;;;;;;;;10.05;84.90;100680.22;2067226;28;20000;-65
2021/10/05 04:09:25;;;;;;;;;;;;;;;10.04;84.92;100681.16;2067095;28;20378;-66
2021/10/05 04:10:25;;;;;;;;;;;;;;;10.02;85.27;100672.53;2067167;28;19909;-65
2021/10/05 04:11:25;;;;;;;;;;;;;;;10.06;84.78;100670.63;2067106;28;19910;-65
2021/10/05 04:12:25;;;;;;;;;;;;;;;10.04;84.96;100670.72;2067078;28;20421;-65
2021/10/05 04:13:25;;;;;;;;;;;;;;;10.03;85.12;100666.41;2066439;28;19910;-65
2021/10/05 04:14:25;;;;;;;;;;;;;;;10.04;85.29;100667.25;2058380;28;19917;-65
2021/10/05 04:15:26;;;;;;;;;;;;;;;10.08;84.55;100668.81;2066534;28;19921;-65
2021/10/05 04:16:26;;;;;;;;;;;;;;;10.05;85.05;100664.59;2066227;28;19933;-65
2021/10/05 04:17:26;;;;;;;;;;;;;;;10.04;84.50;100667.25;2066546;28;19921;-65
2021/10/05 04:18:26;;;;;;;;;;;;;;;9.98;85.19;100660.53;2067030;28;20383;-65
2021/10/05 04:19:27;;;;;;;;;;;;;;;10.01;85.00;100657.81;2067075;28;19910;-65
2021/10/05 04:20:27;;;;;;;;;;;;;;;9.99;85.27;100657.00;2067070;28;19910;-65
2021/10/05 04:21:27;;;;;;;;;;;;;;;9.97;85.42;100660.59;2067009;28;19909;-65
2021/10/05 04:22:28;;;;;;;;;;;;;;;9.99;84.61;100664.84;2067049;28;19913;-67
2021/10/05 04:23:28;;;;;;;;;;;;;;;9.99;85.08;100659.63;2067036;28;20290;-66
2021/10/05 04:24:28;;;;;;;;;;;;;;;9.96;85.47;100648.50;2066418;28;19909;-65
2021/10/05 04:25:28;;;;;;;;;;;;;;;9.98;84.97;100652.72;2066514;28;20368;-64
2021/10/05 04:26:29;;;;;;;;;;;;;;;9.96;85.25;100651.94;2067018;28;20287;-66
2021/10/05 04:27:29;;;;;;;;;;;;;;;9.97;85.70;100648.44;2067027;28;20302;-65
2021/10/05 04:28:29;;;;;;;;;;;;;;;9.97;85.03;100639.75;2066917;28;19909;-67
2021/10/05 04:29:29;;;;;;;;;;;;;;;10.03;84.63;100645.53;2067038;28;20248;-67
2021/10/05 04:30:29;;;;;;;;;;;;;;;10.08;84.66;100653.16;2066983;28;19914;-66
2021/10/05 04:31:30;;;;;;;;;;;;;;;10.07;84.91;100640.19;2066921;28;19964;-66
2021/10/05 04:32:30;;;;;;;;;;;;;;;10.08;84.31;100644.50;2066235;28;19913;-65
2021/10/05 04:33:30;;;;;;;;;;;;;;;10.07;84.44;100645.41;2066445;28;19910;-66
2021/10/05 04:34:31;;;;;;;;;;;;;;;10.09;84.14;100638.38;2066783;28;19910;-67
2021/10/05 04:35:31;;;;;;;;;;;;;;;10.12;84.20;100635.63;2066322;28;19975;-66
2021/10/05 04:36:31;;;;;;;;;;;;;;;10.09;84.26;100638.38;2066292;28;19914;-66
2021/10/05 04:37:31;;;;;;;;;;;;;;;10.10;84.32;100640.06;2066295;28;19953;-65
2021/10/05 04:38:31;;;;;;;;;;;;;;;10.04;84.63;100634.22;2066410;28;19910;-67
2021/10/05 04:39:32;;;;;;;;;;;;;;;10.00;84.91;100630.06;2066893;28;19983;-65
2021/10/05 04:40:33;;;;;;;;;;;;;;;9.96;85.39;100631.06;2066859;28;19944;-66
2021/10/05 04:41:33;;;;;;;;;;;;;;;9.93;85.09;100623.41;2066857;28;19955;-66
2021/10/05 04:42:33;;;;;;;;;;;;;;;9.92;85.32;100632.13;2066922;28;19916;-66
2021/10/05 04:43:33;;;;;;;;;;;;;;;9.95;84.96;100626.78;2066334;28;19977;-67
2021/10/05 04:44:34;;;;;;;;;;;;;;;9.99;85.14;100628.34;2066292;28;19953;-65
2021/10/05 04:45:34;;;;;;;;;;;;;;;9.94;85.38;100613.81;2066827;28;19920;-65
2021/10/05 04:46:34;;;;;;;;;;;;;;;9.95;85.43;100621.56;2069613;28;20346;-65
2021/10/05 04:47:35;;;;;;;;;;;;;;;9.91;85.04;100614.78;2066778;28;20256;-65
2021/10/05 04:48:35;;;;;;;;;;;;;;;9.99;85.08;100614.47;2066836;28;19917;-66
2021/10/05 04:49:36;;;;;;;;;;;;;;;10.03;84.81;100623.84;2066821;28;20371;-66
2021/10/05 04:50:36;;;;;;;;;;;;;;;10.01;84.89;100613.50;2066778;28;19958;-66
2021/10/05 04:51:36;;;;;;;;;;;;;;;9.99;85.27;100611.88;2066801;28;20325;-65
2021/10/05 04:52:37;;;;;;;;;;;;;;;9.98;85.06;100610.16;2066790;28;19956;-65
2021/10/05 04:53:37;;;;;;;;;;;;;;;9.97;84.91;100622.34;2066825;28;19967;-65
2021/10/05 04:54:37;;;;;;;;;;;;;;;10.00;85.00;100614.41;2066797;28;19910;-66
2021/10/05 04:55:37;;;;;;;;;;;;;;;9.97;85.00;100604.09;2066734;28;20274;-65
2021/10/05 04:56:38;;;;;;;;;;;;;;;9.97;84.82;100609.31;2066664;28;19920;-64
2021/10/05 04:57:38;;;;;;;;;;;;;;;9.99;84.99;100610.09;2066877;28;19928;-66
2021/10/05 04:58:38;;;;;;;;;;;;;;;10.00;84.89;100608.34;2066748;28;19909;-65
2021/10/05 04:59:38;;;;;;;;;;;;;;;9.99;85.00;100601.44;2066539;28;19916;-64
2021/10/05 05:00:38;;;;;;;;;;;;;;;10.08;84.60;100601.03;2066755;28;19909;-66
2021/10/05 05:01:39;;;;;;;;;;;;;;;10.10;83.97;100600.97;2066751;28;19910;-67
2021/10/05 05:02:39;;;;;;;;;;;;;;;10.13;84.88;100598.22;2066072;28;19910;-66
2021/10/05 05:03:39;;;;;;;;;;;;;;;10.17;84.07;100605.00;2066010;28;19963;-67
2021/10/05 05:04:39;;;;;;;;;;;;;;;10.22;83.55;100603.00;2066092;28;19913;-66
2021/10/05 05:05:39;;;;;;;;;;;;;;;10.21;83.81;100590.91;2066063;28;19913;-66
2021/10/05 05:06:40;;;;;;;;;;;;;;;10.21;84.15;100600.47;2066170;28;19909;-69
2021/10/05 05:07:40;;;;;;;;;;;;;;;10.22;83.80;100603.00;2065976;28;19913;-65
2021/10/05 05:08:40;;;;;;;;;;;;;;;10.30;83.83;100600.91;2066165;28;20041;-65
2021/10/05 05:09:40;;;;;;;;;;;;;;;10.35;83.72;100597.25;2066049;28;19976;-66
2021/10/05 05:10:40;;;;;;;;;;;;;;;10.34;83.52;100600.78;2066131;28;20209;-66
2021/10/05 05:11:41;;;;;;;;;;;;;;;10.37;83.14;100595.41;2066697;28;19952;-65
2021/10/05 05:12:41;;;;;;;;;;;;;;;10.39;82.91;100593.56;2066662;28;19941;-65
2021/10/05 05:13:41;;;;;;;;;;;;;;;10.45;83.32;100588.13;2066024;28;20375;-66